createdAt,value
2023-04-28T00:01:44.673Z,100636.63
2023-04-28T00:06:46.334Z,100631.06
2023-04-28T00:11:47.845Z,100622.44
2023-04-28T00:16:49.637Z,100618.97
2023-04-28T00:21:51.188Z,100623.50
2023-04-28T00:26:52.660Z,100613.03
2023-04-28T00:31:54.126Z,100607.47
2023-04-28T00:36:55.797Z,100607.13
2023-04-28T00:41:57.787Z,100608.00
2023-04-28T00:46:59.748Z,100606.69
2023-04-28T00:52:05.265Z,100602.56
2023-04-28T00:57:07.995Z,100603.22
2023-04-28T01:02:09.462Z,100590.38
2023-04-28T01:07:11.725Z,100596.31
2023-04-28T01:12:13.342Z,100590.38
2023-04-28T01:17:14.878Z,100579.25
2023-04-28T01:22:16.700Z,100579.63
2023-04-28T01:27:18.258Z,100583.06
2023-04-28T01:32:19.700Z,100571.25
2023-04-28T01:37:21.160Z,100572.50
2023-04-28T01:42:22.653Z,100564.78
2023-04-28T01:47:24.145Z,100567.38
2023-04-28T01:52:27.327Z,100573.00
2023-04-28T01:57:29.190Z,100576.28
2023-04-28T02:02:31.001Z,100571.41
2023-04-28T02:07:32.596Z,100570.16
2023-04-28T02:12:34.054Z,100558.25
2023-04-28T02:17:35.729Z,100551.91
2023-04-28T02:22:37.198Z,100554.72
2023-04-28T02:27:38.670Z,100557.66
2023-04-28T02:32:40.150Z,100557.47
2023-04-28T02:37:41.673Z,100553.81
2023-04-28T02:42:43.124Z,100555.53
2023-04-28T02:47:44.707Z,100548.38
2023-04-28T02:52:48.339Z,100539.03
2023-04-28T02:57:50.605Z,100546.31
2023-04-28T03:02:52.109Z,100547.09
2023-04-28T03:07:54.022Z,100540.94
2023-04-28T03:12:55.439Z,100544.59
2023-04-28T03:17:56.902Z,100542.88
2023-04-28T03:22:58.489Z,100543.25
2023-04-28T03:27:59.931Z,100549.16
2023-04-28T03:33:01.470Z,100541.75
2023-04-28T03:38:03.011Z,100542.72
2023-04-28T03:43:05.010Z,100545.22
2023-04-28T03:48:07.405Z,100541.56
2023-04-28T03:53:08.949Z,100528.75
2023-04-28T03:58:10.694Z,100532.91
2023-04-28T04:03:12.332Z,100533.78
2023-04-28T04:08:13.911Z,100539.31
2023-04-28T04:13:15.508Z,100534.13
2023-04-28T04:18:16.991Z,100534.66
2023-04-28T04:23:18.391Z,100538.47
2023-04-28T04:28:19.822Z,100534.50
2023-04-28T04:33:21.264Z,100532.19
2023-04-28T04:38:22.670Z,100533.59
2023-04-28T04:43:24.157Z,100532.34
2023-04-28T04:48:25.646Z,100536.47
2023-04-28T04:53:27.194Z,100525.41
2023-04-28T04:58:29.160Z,100530.13
2023-04-28T05:03:30.828Z,100522.31
2023-04-28T05:08:32.346Z,100527.13
2023-04-28T05:13:33.764Z,100527.31
2023-04-28T05:18:35.228Z,100521.38
2023-04-28T05:23:36.639Z,100513.69
2023-04-28T05:28:40.652Z,100514.09
2023-04-28T05:33:42.193Z,100519.88
2023-04-28T05:38:44.318Z,100506.66
2023-04-28T05:43:46.425Z,100505.53
2023-04-28T05:48:47.899Z,100505.00
2023-04-28T05:53:49.343Z,100505.66
2023-04-28T05:58:51.349Z,100499.22
2023-04-28T06:03:54.013Z,100498.84
2023-04-28T06:08:55.762Z,100503.75
2023-04-28T06:13:57.267Z,100500.75
2023-04-28T06:18:58.731Z,100495.69
2023-04-28T06:24:00.859Z,100480.28
2023-04-28T06:29:02.584Z,100471.69
2023-04-28T06:34:03.999Z,100479.03
2023-04-28T06:39:05.748Z,100475.97
2023-04-28T06:44:07.221Z,100478.09
2023-04-28T06:49:08.678Z,100473.47
2023-04-28T06:54:10.103Z,100468.84
2023-04-28T06:59:11.511Z,100464.31
2023-04-28T07:04:13.084Z,100465.09
2023-04-28T07:09:15.928Z,100465.63
2023-04-28T07:14:17.616Z,100458.81
2023-04-28T07:19:19.287Z,100441.63
2023-04-28T07:24:20.741Z,100439.69
2023-04-28T07:29:22.171Z,100434.06
2023-04-28T07:34:23.620Z,100442.94
2023-04-28T07:39:25.172Z,100437.03
2023-04-28T07:44:26.747Z,100428.00
2023-04-28T07:49:32.035Z,100429.13
2023-04-28T07:54:35.110Z,100422.16
2023-04-28T07:59:38.365Z,100414.38
2023-04-28T08:04:39.961Z,100403.69
2023-04-28T08:09:44.114Z,100405.69
2023-04-28T08:14:45.527Z,100410.31
2023-04-28T08:19:47.574Z,100402.81
2023-04-28T08:24:48.989Z,100398.84
2023-04-28T08:29:50.457Z,100398.53
2023-04-28T08:34:51.863Z,100389.94
2023-04-28T08:40:02.170Z,100395.94
2023-04-28T08:45:05.549Z,100369.06
2023-04-28T08:50:08.683Z,100382.81
2023-04-28T08:55:12.837Z,100370.50
2023-04-28T09:00:15.088Z,100379.97
2023-04-28T09:05:16.833Z,100366.81
2023-04-28T09:10:23.542Z,100360.47
2023-04-28T09:15:41.001Z,100356.72
2023-04-28T09:20:42.563Z,100348.72
2023-04-28T09:25:59.767Z,100345.44
2023-04-28T09:31:01.811Z,100336.09
2023-04-28T09:36:03.441Z,100331.25
2023-04-28T09:41:05.105Z,100321.28
2023-04-28T09:46:06.600Z,100309.56
2023-04-28T09:51:09.107Z,100314.94
2023-04-28T09:56:11.850Z,100299.19
2023-04-28T10:01:14.632Z,100300.25
2023-04-28T10:06:16.242Z,100285.41
2023-04-28T10:11:17.945Z,100276.09
2023-04-28T10:16:19.838Z,100266.34
2023-04-28T10:21:23.577Z,100257.69
2023-04-28T10:26:56.549Z,100242.56
2023-04-28T10:32:17.539Z,100237.41
2023-04-28T10:37:19.500Z,100235.06
2023-04-28T10:42:52.950Z,100223.19
2023-04-28T10:48:04.439Z,100210.50
2023-04-28T10:53:06.404Z,100207.66
2023-04-28T10:58:28.058Z,100212.66
2023-04-28T11:03:52.377Z,100206.47
2023-04-28T11:08:57.460Z,100195.03
2023-04-28T11:14:17.153Z,100196.28
2023-04-28T11:19:20.174Z,100199.28
2023-04-28T11:24:22.976Z,100191.13
2023-04-28T11:29:41.575Z,100181.97
2023-04-28T11:34:43.069Z,100181.66
2023-04-28T11:39:45.386Z,100178.53
2023-04-28T11:44:54.489Z,100165.56
2023-04-28T11:49:57.229Z,100154.66
2023-04-28T11:55:02.325Z,100153.59
2023-04-28T12:00:14.955Z,100144.16
2023-04-28T12:05:16.972Z,100148.50
2023-04-28T12:10:19.880Z,100143.38
2023-04-28T12:15:22.722Z,100139.97
2023-04-28T12:20:35.408Z,100125.13
2023-04-28T12:25:44.475Z,100132.47
2023-04-28T12:30:45.964Z,100123.22
2023-04-28T12:35:49.028Z,100116.38
2023-04-28T12:40:50.578Z,100118.38
2023-04-28T12:45:56.519Z,100114.91
2023-04-28T12:50:58.148Z,100105.94
2023-04-28T12:55:59.584Z,100100.34
2023-04-28T13:01:02.072Z,100096.78
2023-04-28T13:06:04.409Z,100086.47
2023-04-28T13:11:16.084Z,100082.13
2023-04-28T13:16:29.235Z,100076.31
2023-04-28T13:21:30.735Z,100076.31
2023-04-28T13:26:32.264Z,100071.25
2023-04-28T13:31:34.452Z,100076.41
2023-04-28T13:36:36.287Z,100072.34
2023-04-28T13:41:37.984Z,100065.34
2023-04-28T13:46:39.506Z,100053.88
2023-04-28T13:51:41.164Z,100050.59
2023-04-28T13:56:42.614Z,100045.00
2023-04-28T14:01:44.264Z,100046.72
2023-04-28T14:06:45.961Z,100035.00
2023-04-28T14:11:47.551Z,100027.31
2023-04-28T14:16:49.056Z,100024.38
2023-04-28T14:21:50.470Z,100021.84
2023-04-28T14:26:52.767Z,100012.31
2023-04-28T14:31:54.172Z,100013.00
2023-04-28T14:36:55.687Z,100011.09
2023-04-28T14:41:57.200Z,100010.91
2023-04-28T14:46:59.703Z,100006.50
2023-04-28T14:52:01.590Z,99996.25
2023-04-28T14:57:03.118Z,99994.03
2023-04-28T15:02:04.953Z,99980.03
2023-04-28T15:07:09.226Z,99973.31
2023-04-28T15:12:10.755Z,99970.22
2023-04-28T15:17:12.288Z,99958.03
2023-04-28T15:22:14.008Z,99957.97
2023-04-28T15:27:15.622Z,99964.13
2023-04-28T15:32:17.473Z,99953.91
2023-04-28T15:37:37.153Z,99954.13
2023-04-28T15:42:39.205Z,99956.00
2023-04-28T15:47:41.317Z,99944.06
2023-04-28T15:52:46.451Z,99942.19
2023-04-28T15:57:48.480Z,99940.97
2023-04-28T16:02:50.321Z,99941.69
2023-04-28T16:07:52.784Z,99939.28
2023-04-28T16:12:54.190Z,99939.97
2023-04-28T16:17:56.903Z,99934.50
2023-04-28T16:22:58.399Z,99933.16
2023-04-28T16:27:59.810Z,99932.09
2023-04-28T16:33:01.403Z,99928.84
2023-04-28T16:38:02.969Z,99920.16
2023-04-28T16:43:04.419Z,99917.44
2023-04-28T16:48:06.341Z,99910.94
2023-04-28T16:53:08.164Z,99915.38
2023-04-28T16:58:09.571Z,99909.53
2023-04-28T17:03:11.638Z,99913.28
2023-04-28T17:08:13.880Z,99908.88
2023-04-28T17:13:15.652Z,99904.44
2023-04-28T17:18:17.087Z,99906.09
2023-04-28T17:23:19.220Z,99906.19
2023-04-28T17:28:20.713Z,99908.38
2023-04-28T17:33:22.113Z,99897.31
2023-04-28T17:38:23.826Z,99903.91
2023-04-28T17:43:25.777Z,99893.09
2023-04-28T17:48:27.252Z,99897.44
2023-04-28T17:53:28.660Z,99892.06
2023-04-28T17:58:32.342Z,99887.88
2023-04-28T18:03:35.515Z,99901.63
2023-04-28T18:08:37.217Z,99892.25
2023-04-28T18:13:38.701Z,99901.03
2023-04-28T18:18:40.707Z,99902.97
2023-04-28T18:23:42.280Z,99901.03
2023-04-28T18:28:48.105Z,99903.44
2023-04-28T18:33:49.677Z,99909.78
2023-04-28T18:38:51.116Z,99906.66
2023-04-28T18:43:52.536Z,99905.88
2023-04-28T18:48:54.598Z,99915.38
2023-04-28T18:53:56.099Z,99915.13
2023-04-28T18:58:57.681Z,99915.84
2023-04-28T19:03:59.229Z,99907.69
2023-04-28T19:09:01.499Z,99900.41
2023-04-28T19:14:02.979Z,99904.81
2023-04-28T19:19:04.539Z,99895.53
2023-04-28T19:24:06.715Z,99894.84
2023-04-28T19:29:08.238Z,99896.13
2023-04-28T19:34:09.666Z,99897.94
2023-04-28T19:39:11.083Z,99899.84
2023-04-28T19:44:12.670Z,99898.00
2023-04-28T19:49:14.153Z,99901.75
2023-04-28T19:54:16.725Z,99898.00
2023-04-28T19:59:18.300Z,99903.03
2023-04-28T20:04:19.809Z,99901.63
2023-04-28T20:09:21.378Z,99906.94
2023-04-28T20:14:23.098Z,99911.56
2023-04-28T20:19:24.937Z,99906.16
2023-04-28T20:24:26.422Z,99901.66
2023-04-28T20:29:34.399Z,99908.84
2023-04-28T20:34:36.396Z,99913.13
2023-04-28T20:39:37.816Z,99908.72
2023-04-28T20:44:40.931Z,99906.00
2023-04-28T20:49:42.362Z,99897.16
2023-04-28T20:54:43.914Z,99890.16
2023-04-28T20:59:45.908Z,99887.03
2023-04-28T21:04:47.652Z,99877.47
2023-04-28T21:09:49.307Z,99877.47
2023-04-28T21:14:50.802Z,99881.03
2023-04-28T21:19:55.197Z,99872.63
2023-04-28T21:24:57.646Z,99876.31
2023-04-28T21:29:59.189Z,99872.78
2023-04-28T21:35:00.641Z,99871.91
2023-04-28T21:40:02.549Z,99872.31
2023-04-28T21:45:04.666Z,99866.63
2023-04-28T21:50:06.894Z,99867.19
2023-04-28T21:55:08.810Z,99870.19
2023-04-28T22:00:12.605Z,99868.47
2023-04-28T22:05:14.044Z,99871.78
2023-04-28T22:10:17.622Z,99863.81
2023-04-28T22:15:19.220Z,99860.34
2023-04-28T22:20:20.673Z,99860.91
2023-04-28T22:25:22.224Z,99851.50
2023-04-28T22:30:25.988Z,99846.50
2023-04-28T22:35:28.140Z,99845.38
2023-04-28T22:40:29.557Z,99841.09
2023-04-28T22:45:31.107Z,99844.09
2023-04-28T22:50:32.616Z,99836.16
2023-04-28T22:55:34.075Z,99836.69
2023-04-28T23:00:35.845Z,99833.81
2023-04-28T23:05:38.382Z,99833.56
2023-04-28T23:10:39.794Z,99826.16
2023-04-28T23:15:41.766Z,99828.41
2023-04-28T23:20:43.206Z,99832.13
2023-04-28T23:25:44.644Z,99827.53
2023-04-28T23:30:46.055Z,99827.25
2023-04-28T23:35:47.460Z,99820.97
2023-04-28T23:40:48.951Z,99822.16
2023-04-28T23:45:50.422Z,99804.19
2023-04-28T23:50:51.889Z,99801.88
2023-04-28T23:55:53.331Z,99783.66
